createdAt,value
2023-12-19T00:01:25.355Z,13.80
2023-12-19T00:03:54.756Z,14.00
2023-12-19T00:06:23.034Z,13.90
2023-12-19T00:08:51.813Z,13.80
2023-12-19T00:11:21.290Z,13.50
2023-12-19T00:13:49.451Z,13.10
2023-12-19T00:16:17.590Z,12.90
2023-12-19T00:18:46.172Z,12.70
2023-12-19T00:21:14.426Z,12.50
2023-12-19T00:23:42.853Z,12.50
2023-12-19T00:26:14.021Z,12.50
2023-12-19T00:28:45.342Z,12.30
2023-12-19T00:31:21.870Z,12.10
2023-12-19T00:33:50.530Z,12.00
2023-12-19T00:36:22.625Z,12.10
2023-12-19T00:38:51.523Z,11.90
2023-12-19T00:41:19.900Z,11.90
2023-12-19T00:43:49.445Z,11.90
2023-12-19T00:46:17.635Z,11.90
2023-12-19T00:48:45.942Z,12.00
2023-12-19T00:51:14.345Z,12.10
2023-12-19T00:53:43.108Z,11.80
2023-12-19T00:56:12.824Z,11.70
2023-12-19T00:58:41.656Z,11.50
2023-12-19T01:01:11.342Z,11.50
2023-12-19T01:03:39.705Z,11.60
2023-12-19T01:06:08.254Z,11.80
2023-12-19T01:08:37.532Z,11.90
2023-12-19T01:11:05.940Z,11.90
2023-12-19T01:13:34.089Z,11.90
2023-12-19T01:16:02.409Z,11.90
2023-12-19T01:18:32.113Z,12.00
2023-12-19T01:21:00.269Z,12.00
2023-12-19T01:23:28.424Z,12.00
2023-12-19T01:25:56.597Z,12.00
2023-12-19T01:28:24.769Z,12.00
2023-12-19T01:30:53.100Z,11.90
2023-12-19T01:33:21.500Z,11.90
2023-12-19T01:35:51.582Z,11.90
2023-12-19T01:38:19.832Z,11.90
2023-12-19T01:40:47.928Z,12.00
2023-12-19T01:43:23.980Z,12.00
2023-12-19T01:45:52.715Z,12.10
2023-12-19T01:48:22.508Z,12.00
2023-12-19T01:50:52.197Z,11.90
2023-12-19T01:53:21.300Z,11.90
2023-12-19T01:55:52.620Z,12.10
2023-12-19T01:58:21.753Z,12.00
2023-12-19T02:00:52.462Z,11.80
2023-12-19T02:03:21.855Z,11.70
2023-12-19T02:05:52.894Z,11.60
2023-12-19T02:08:21.490Z,11.70
2023-12-19T02:10:49.643Z,11.60
2023-12-19T02:19:13.983Z,11.60
2023-12-19T02:21:43.563Z,11.70
2023-12-19T02:24:13.107Z,11.70
2023-12-19T02:26:41.979Z,11.70
2023-12-19T02:29:10.171Z,11.50
2023-12-19T02:31:38.528Z,11.50
2023-12-19T02:34:06.846Z,11.40
2023-12-19T02:36:37.446Z,11.40
2023-12-19T02:39:05.667Z,11.30
2023-12-19T02:41:35.178Z,11.30
2023-12-19T02:44:03.313Z,11.30
2023-12-19T02:46:31.470Z,11.50
2023-12-19T02:48:59.717Z,11.50
2023-12-19T02:51:28.086Z,11.50
2023-12-19T02:53:58.676Z,11.50
2023-12-19T02:56:29.506Z,11.50
2023-12-19T02:58:59.054Z,11.40
2023-12-19T03:01:27.448Z,11.30
2023-12-19T03:03:55.830Z,11.30
2023-12-19T03:06:24.308Z,11.50
2023-12-19T03:08:54.672Z,11.80
2023-12-19T03:11:22.827Z,11.90
2023-12-19T03:13:51.000Z,12.10
2023-12-19T03:16:20.583Z,12.10
2023-12-19T03:18:48.872Z,12.10
2023-12-19T03:21:17.064Z,12.00
2023-12-19T03:23:45.249Z,12.00
2023-12-19T03:26:13.437Z,12.00
2023-12-19T03:28:41.593Z,12.10
2023-12-19T03:31:09.843Z,11.90
2023-12-19T03:33:39.531Z,11.90
2023-12-19T03:36:08.099Z,11.70
2023-12-19T03:38:36.802Z,11.70
2023-12-19T03:41:05.289Z,11.50
2023-12-19T03:43:33.626Z,11.40
2023-12-19T03:46:03.835Z,11.50
2023-12-19T03:48:32.408Z,11.60
2023-12-19T03:51:01.923Z,11.50
2023-12-19T03:53:30.086Z,11.40
2023-12-19T03:55:59.051Z,11.30
2023-12-19T03:58:27.220Z,11.20
2023-12-19T04:00:55.556Z,11.20
2023-12-19T04:03:23.829Z,11.20
2023-12-19T04:05:52.036Z,11.40
2023-12-19T04:08:22.051Z,11.40
2023-12-19T04:10:50.294Z,11.40
2023-12-19T04:13:18.494Z,11.30
2023-12-19T04:15:46.884Z,11.20
2023-12-19T04:18:16.040Z,11.00
2023-12-19T04:20:44.247Z,10.90
2023-12-19T04:23:12.509Z,10.90
2023-12-19T04:25:42.054Z,11.10
2023-12-19T04:28:10.290Z,11.20
2023-12-19T04:30:38.527Z,11.40
2023-12-19T04:33:06.940Z,11.30
2023-12-19T04:35:35.195Z,11.30
2023-12-19T04:38:03.343Z,11.40
2023-12-19T04:40:31.588Z,11.40
2023-12-19T04:43:01.229Z,11.60
2023-12-19T04:45:29.486Z,11.60
2023-12-19T04:47:57.971Z,11.70
2023-12-19T04:50:27.814Z,11.60
2023-12-19T04:52:58.016Z,11.50
2023-12-19T04:55:26.168Z,11.60
2023-12-19T04:57:54.347Z,11.40
2023-12-19T05:00:23.952Z,11.30
2023-12-19T05:02:55.718Z,11.40
2023-12-19T05:05:25.030Z,11.50
2023-12-19T05:07:53.173Z,11.50
2023-12-19T05:10:21.536Z,11.60
2023-12-19T05:12:49.790Z,11.60
2023-12-19T05:15:18.065Z,11.50
2023-12-19T05:17:48.831Z,11.40
2023-12-19T05:20:17.435Z,11.40
2023-12-19T05:22:46.153Z,11.40
2023-12-19T05:25:14.639Z,11.70
2023-12-19T05:27:45.028Z,11.90
2023-12-19T05:30:14.551Z,11.90
2023-12-19T05:32:43.030Z,11.80
2023-12-19T05:35:13.004Z,11.70
2023-12-19T05:37:41.163Z,11.70
2023-12-19T05:40:11.206Z,11.70
2023-12-19T05:42:39.505Z,11.70
2023-12-19T05:45:08.874Z,11.80
2023-12-19T05:47:37.670Z,11.80
2023-12-19T05:50:06.423Z,11.70
2023-12-19T05:52:35.983Z,11.70
2023-12-19T05:55:04.266Z,11.80
2023-12-19T05:57:32.494Z,11.90
2023-12-19T06:00:02.131Z,12.00
2023-12-19T06:02:33.268Z,12.10
2023-12-19T06:05:02.498Z,12.30
2023-12-19T06:07:30.653Z,12.30
2023-12-19T06:10:00.261Z,12.30
2023-12-19T06:12:28.555Z,12.20
2023-12-19T06:14:56.727Z,12.30
2023-12-19T06:17:25.054Z,12.50
2023-12-19T06:19:53.445Z,12.50
2023-12-19T06:22:21.708Z,12.60
2023-12-19T06:24:51.493Z,12.60
2023-12-19T06:27:21.281Z,12.60
2023-12-19T06:29:49.792Z,12.70
2023-12-19T06:32:18.796Z,12.90
2023-12-19T06:34:47.242Z,13.00
2023-12-19T06:37:15.542Z,12.90
2023-12-19T06:39:44.473Z,12.80
2023-12-19T06:42:12.629Z,12.80
2023-12-19T06:44:42.265Z,12.70
2023-12-19T06:47:10.429Z,12.70
2023-12-19T06:49:39.620Z,12.60
2023-12-19T06:52:08.097Z,12.60
2023-12-19T06:54:39.242Z,12.60
2023-12-19T06:57:07.682Z,12.70
2023-12-19T06:59:35.848Z,12.70
2023-12-19T07:02:05.613Z,12.70
2023-12-19T07:04:33.795Z,12.80
2023-12-19T07:07:02.602Z,12.90
2023-12-19T07:09:30.913Z,13.20
2023-12-19T07:11:59.603Z,13.50
2023-12-19T07:14:29.550Z,13.60
2023-12-19T07:16:57.761Z,13.50
2023-12-19T07:19:27.346Z,13.40
2023-12-19T07:21:55.628Z,13.50
2023-12-19T07:24:23.917Z,13.40
2023-12-19T07:26:52.082Z,13.20
2023-12-19T07:29:20.574Z,13.10
2023-12-19T07:31:48.950Z,13.10
2023-12-19T07:34:17.419Z,13.20
2023-12-19T07:36:48.190Z,13.20
2023-12-19T07:39:16.421Z,13.10
2023-12-19T07:41:44.816Z,13.10
2023-12-19T07:44:15.784Z,13.00
2023-12-19T07:46:44.574Z,13.00
2023-12-19T07:49:13.488Z,13.00
2023-12-19T07:51:42.105Z,13.20
2023-12-19T07:54:11.677Z,13.30
2023-12-19T07:56:42.466Z,13.30
2023-12-19T07:59:11.556Z,13.30
2023-12-19T08:01:40.620Z,13.30
2023-12-19T08:04:09.314Z,13.30
2023-12-19T08:11:30.702Z,13.30
2023-12-19T08:14:00.277Z,13.30
2023-12-19T08:16:28.428Z,13.10
2023-12-19T08:18:56.783Z,13.00
2023-12-19T08:21:25.069Z,12.90
2023-12-19T08:23:53.353Z,12.90
2023-12-19T08:26:21.544Z,12.90
2023-12-19T08:28:50.605Z,12.90
2023-12-19T08:31:22.606Z,13.00
2023-12-19T08:33:50.942Z,12.90
2023-12-19T08:36:33.313Z,13.00
2023-12-19T08:39:03.791Z,13.30
2023-12-19T08:41:32.033Z,13.60
2023-12-19T08:44:00.645Z,13.70
2023-12-19T08:46:30.280Z,13.60
2023-12-19T08:48:58.596Z,13.50
2023-12-19T08:51:27.262Z,13.30
2023-12-19T08:53:55.581Z,13.30
2023-12-19T08:56:24.140Z,13.20
2023-12-19T08:58:52.459Z,13.10
2023-12-19T09:01:20.865Z,12.90
2023-12-19T09:03:50.713Z,12.80
2023-12-19T09:06:41.761Z,12.90
2023-12-19T09:09:12.993Z,13.20
2023-12-19T09:11:41.404Z,13.30
2023-12-19T09:14:09.647Z,13.30
2023-12-19T09:16:37.836Z,13.30
2023-12-19T09:19:07.607Z,13.50
2023-12-19T09:21:35.817Z,13.70
2023-12-19T09:24:04.078Z,13.80
2023-12-19T09:26:32.930Z,13.80
2023-12-19T09:29:01.120Z,13.90
2023-12-19T09:31:29.425Z,13.90
2023-12-19T09:33:57.809Z,14.00
2023-12-19T09:36:27.384Z,14.00
2023-12-19T09:38:55.709Z,14.10
2023-12-19T09:41:24.038Z,14.30
2023-12-19T09:43:52.244Z,14.30
2023-12-19T09:46:21.192Z,14.30
2023-12-19T09:48:51.688Z,14.40
2023-12-19T09:51:33.293Z,14.50
2023-12-19T09:54:04.053Z,14.60
2023-12-19T09:56:32.605Z,14.60
2023-12-19T09:59:02.792Z,14.70
2023-12-19T10:01:31.104Z,14.70
2023-12-19T10:03:59.416Z,14.70
2023-12-19T10:06:28.997Z,14.70
2023-12-19T10:08:58.110Z,14.70
2023-12-19T10:11:28.970Z,14.80
2023-12-19T10:14:12.201Z,14.80
2023-12-19T10:16:42.227Z,14.90
2023-12-19T10:19:14.675Z,14.80
2023-12-19T10:21:43.138Z,14.70
2023-12-19T10:24:13.242Z,14.70
2023-12-19T10:26:43.207Z,14.70
2023-12-19T10:29:12.523Z,14.70
2023-12-19T10:31:40.998Z,14.80
2023-12-19T10:34:20.005Z,14.80
2023-12-19T10:36:48.505Z,14.90
2023-12-19T10:39:20.054Z,15.00
2023-12-19T10:41:49.669Z,15.30
2023-12-19T10:44:20.343Z,15.40
2023-12-19T10:46:49.611Z,15.60
2023-12-19T10:49:17.909Z,15.70
2023-12-19T10:51:52.289Z,15.70
2023-12-19T10:54:23.716Z,15.80
2023-12-19T10:57:04.224Z,15.80
2023-12-19T10:59:33.511Z,15.80
2023-12-19T11:02:06.415Z,15.70
2023-12-19T11:04:43.090Z,15.80
2023-12-19T11:07:14.569Z,15.80
2023-12-19T11:09:45.599Z,15.80
2023-12-19T11:12:16.202Z,15.90
2023-12-19T11:14:44.443Z,15.80
2023-12-19T11:17:18.128Z,15.70
2023-12-19T11:19:52.926Z,15.70
2023-12-19T11:22:27.224Z,15.70
2023-12-19T11:25:17.633Z,15.60
2023-12-19T11:27:57.534Z,15.50
2023-12-19T11:30:38.118Z,15.50
2023-12-19T11:33:07.255Z,15.60
2023-12-19T11:35:36.488Z,15.60
2023-12-19T11:38:27.665Z,15.40
2023-12-19T11:40:58.134Z,15.30
2023-12-19T11:43:55.788Z,15.30
2023-12-19T11:46:27.618Z,15.30
2023-12-19T11:48:57.191Z,15.40
2023-12-19T11:51:51.540Z,15.40
2023-12-19T11:54:20.580Z,15.60
2023-12-19T11:57:00.124Z,15.60
2023-12-19T11:59:47.951Z,15.50
2023-12-19T12:02:30.436Z,15.50
2023-12-19T12:05:20.767Z,15.50
2023-12-19T12:07:51.732Z,15.50
2023-12-19T12:10:22.979Z,15.60
2023-12-19T12:12:52.410Z,15.60
2023-12-19T12:15:22.869Z,15.60
2023-12-19T12:18:02.984Z,15.60
2023-12-19T12:20:33.516Z,15.50
2023-12-19T12:23:02.308Z,15.60
2023-12-19T12:25:32.859Z,15.70
2023-12-19T12:28:11.078Z,15.70
2023-12-19T12:30:40.422Z,15.80
2023-12-19T12:33:10.490Z,15.80
2023-12-19T12:35:40.555Z,15.80
2023-12-19T12:38:12.810Z,15.70
2023-12-19T12:40:56.485Z,15.70
2023-12-19T12:43:34.729Z,15.80
2023-12-19T12:46:09.611Z,16.00
2023-12-19T12:48:40.628Z,16.10
2023-12-19T12:51:09.533Z,16.40
2023-12-19T12:53:38.411Z,16.50
2023-12-19T12:56:13.466Z,16.80
2023-12-19T12:58:42.208Z,16.90
2023-12-19T13:01:11.882Z,17.10
2023-12-19T13:03:41.577Z,17.20
2023-12-19T13:06:10.366Z,17.30
2023-12-19T13:08:38.659Z,17.30
2023-12-19T13:11:09.328Z,17.40
2023-12-19T13:13:38.404Z,17.40
2023-12-19T13:16:08.304Z,17.30
2023-12-19T13:18:38.217Z,17.20
2023-12-19T13:21:09.617Z,17.10
2023-12-19T13:23:37.817Z,17.00
2023-12-19T13:26:06.271Z,16.90
2023-12-19T13:28:34.512Z,17.00
2023-12-19T13:31:05.028Z,16.90
2023-12-19T13:33:33.722Z,16.70
2023-12-19T13:36:01.988Z,16.50
2023-12-19T13:38:31.501Z,16.60
2023-12-19T13:40:59.867Z,16.70
2023-12-19T13:43:28.413Z,16.70
2023-12-19T13:45:56.832Z,16.70
2023-12-19T13:48:25.249Z,16.80
2023-12-19T13:50:53.530Z,16.90
2023-12-19T13:53:21.717Z,16.90
2023-12-19T13:55:51.358Z,16.90
2023-12-19T13:58:19.533Z,16.70
2023-12-19T14:00:48.004Z,16.60
2023-12-19T14:03:16.267Z,16.60
2023-12-19T14:05:44.864Z,16.50
2023-12-19T14:08:13.345Z,16.80
2023-12-19T14:10:41.491Z,17.30
2023-12-19T14:13:11.230Z,17.80
2023-12-19T14:15:40.349Z,18.30
2023-12-19T14:18:08.910Z,18.70
2023-12-19T14:20:37.121Z,19.10
2023-12-19T14:23:05.824Z,19.40
2023-12-19T14:25:34.116Z,19.60
2023-12-19T14:28:02.338Z,19.90
2023-12-19T14:30:31.936Z,20.10
2023-12-19T14:33:00.283Z,20.20
2023-12-19T14:35:28.557Z,20.30
2023-12-19T14:37:56.736Z,20.40
2023-12-19T14:40:24.994Z,20.50
2023-12-19T14:42:53.233Z,20.60
2023-12-19T14:45:21.601Z,20.70
2023-12-19T14:47:51.973Z,20.70
2023-12-19T14:50:21.283Z,20.80
2023-12-19T14:52:49.496Z,20.80
2023-12-19T14:55:17.978Z,20.90
2023-12-19T14:57:46.336Z,20.90
2023-12-19T15:00:15.792Z,20.90
2023-12-19T15:02:44.834Z,21.00
2023-12-19T15:05:14.456Z,21.00
2023-12-19T15:07:47.591Z,21.00
2023-12-19T15:10:16.739Z,21.00
2023-12-19T15:12:45.360Z,21.10
2023-12-19T15:15:14.568Z,21.10
2023-12-19T15:17:43.139Z,21.10
2023-12-19T15:20:12.382Z,21.10
2023-12-19T15:22:42.058Z,21.10
2023-12-19T15:25:11.298Z,21.20
2023-12-19T15:27:39.585Z,21.10
2023-12-19T15:30:11.632Z,21.10
2023-12-19T15:32:40.716Z,21.10
2023-12-19T15:35:09.843Z,21.10
2023-12-19T15:37:38.057Z,21.10
2023-12-19T15:40:11.280Z,21.10
2023-12-19T15:42:40.895Z,21.10
2023-12-19T15:45:10.524Z,21.10
2023-12-19T15:47:39.225Z,21.00
2023-12-19T15:50:08.416Z,21.00
2023-12-19T15:52:38.562Z,21.00
2023-12-19T15:55:09.873Z,21.00
2023-12-19T15:57:39.091Z,21.00
2023-12-19T16:00:10.002Z,21.00
2023-12-19T16:02:45.944Z,21.10
2023-12-19T16:05:17.507Z,21.10
2023-12-19T16:07:46.305Z,21.20
2023-12-19T16:10:16.119Z,21.20
2023-12-19T16:12:44.680Z,21.20
2023-12-19T16:15:13.644Z,21.20
2023-12-19T16:17:41.907Z,21.20
2023-12-19T16:20:12.174Z,21.20
2023-12-19T16:22:41.905Z,21.20
2023-12-19T16:25:11.688Z,21.20
2023-12-19T16:27:41.442Z,21.30
2023-12-19T16:30:11.025Z,21.30
2023-12-19T16:32:39.331Z,21.30
2023-12-19T16:35:08.096Z,21.30
2023-12-19T16:37:36.332Z,21.30
2023-12-19T16:40:07.710Z,21.40
2023-12-19T16:42:38.979Z,21.40
2023-12-19T16:45:09.843Z,21.40
2023-12-19T16:47:38.189Z,21.40
2023-12-19T16:50:07.889Z,21.50
2023-12-19T16:52:37.388Z,21.50
2023-12-19T16:55:06.337Z,21.50
2023-12-19T16:57:37.137Z,21.50
2023-12-19T17:00:06.632Z,21.50
2023-12-19T17:02:37.922Z,21.50
2023-12-19T17:05:07.086Z,21.50
2023-12-19T17:07:35.428Z,21.40
2023-12-19T17:10:03.709Z,21.40
2023-12-19T17:12:32.013Z,21.40
2023-12-19T17:15:00.281Z,21.30
2023-12-19T17:17:28.555Z,21.30
2023-12-19T17:19:58.384Z,21.30
2023-12-19T17:22:29.170Z,21.30
2023-12-19T17:24:57.385Z,21.20
2023-12-19T17:27:25.681Z,21.20
2023-12-19T17:29:53.877Z,21.20
2023-12-19T17:32:22.086Z,21.20
2023-12-19T17:34:50.274Z,21.20
2023-12-19T17:37:20.333Z,21.20
2023-12-19T17:39:48.610Z,21.30
2023-12-19T17:42:17.138Z,21.30
2023-12-19T17:44:46.997Z,21.40
2023-12-19T17:47:15.160Z,21.40
2023-12-19T17:49:43.449Z,21.40
2023-12-19T17:52:11.912Z,21.50
2023-12-19T17:54:41.594Z,21.50
2023-12-19T17:57:09.370Z,21.60
2023-12-19T17:59:37.871Z,21.60
2023-12-19T18:02:08.149Z,21.60
2023-12-19T18:04:36.580Z,21.60
2023-12-19T18:07:05.569Z,21.60
2023-12-19T18:13:23.229Z,21.60
2023-12-19T18:15:51.617Z,21.60
2023-12-19T18:18:20.728Z,21.60
2023-12-19T18:20:57.909Z,21.50
2023-12-19T18:23:26.214Z,21.50
2023-12-19T18:25:54.828Z,21.40
2023-12-19T18:28:24.469Z,21.40
2023-12-19T18:30:52.861Z,21.40
2023-12-19T18:33:21.526Z,21.30
2023-12-19T18:35:51.741Z,21.30
2023-12-19T18:38:20.190Z,21.30
2023-12-19T18:40:48.594Z,21.20
2023-12-19T18:43:17.758Z,21.20
2023-12-19T18:45:47.544Z,21.20
2023-12-19T18:48:16.002Z,21.20
2023-12-19T18:50:44.524Z,21.20
2023-12-19T18:53:13.216Z,21.20
2023-12-19T18:55:41.521Z,21.20
2023-12-19T18:58:11.949Z,21.20
2023-12-19T19:00:40.289Z,21.20
2023-12-19T19:03:09.962Z,21.20
2023-12-19T19:05:40.147Z,21.20
2023-12-19T19:08:09.346Z,21.20
2023-12-19T19:10:37.858Z,21.20
2023-12-19T19:17:28.943Z,21.20
2023-12-19T19:20:02.701Z,21.20
2023-12-19T19:22:38.991Z,21.20
2023-12-19T19:25:08.432Z,21.20
2023-12-19T19:27:36.744Z,21.20
2023-12-19T19:30:05.482Z,21.20
2023-12-19T19:32:33.966Z,21.20
2023-12-19T19:35:04.006Z,21.20
2023-12-19T19:37:32.566Z,21.20
2023-12-19T19:40:00.946Z,21.20
2023-12-19T19:42:29.294Z,21.20
2023-12-19T19:44:57.670Z,21.20
2023-12-19T19:47:26.082Z,21.20
2023-12-19T19:49:54.604Z,21.20
2023-12-19T19:52:24.424Z,21.20
2023-12-19T19:56:04.845Z,21.30
2023-12-19T19:58:33.202Z,21.30
2023-12-19T20:01:02.192Z,21.30
2023-12-19T20:03:30.637Z,21.30
2023-12-19T20:05:59.303Z,21.40
2023-12-19T20:08:31.838Z,21.40
2023-12-19T20:11:00.583Z,21.40
2023-12-19T20:13:29.022Z,21.50
2023-12-19T20:15:57.394Z,21.50
2023-12-19T20:18:25.768Z,21.50
2023-12-19T20:20:54.502Z,21.50
2023-12-19T20:23:28.981Z,21.60
2023-12-19T20:25:59.489Z,21.60
2023-12-19T20:28:28.005Z,21.60
2023-12-19T20:30:56.523Z,21.60
2023-12-19T20:33:25.025Z,21.60
2023-12-19T20:35:53.576Z,21.50
2023-12-19T20:38:22.169Z,21.50
2023-12-19T20:40:50.568Z,21.50
2023-12-19T20:43:22.085Z,21.50
2023-12-19T20:45:50.701Z,21.50
2023-12-19T20:48:19.276Z,21.50
2023-12-19T20:50:47.910Z,21.50
2023-12-19T20:53:16.305Z,21.50
2023-12-19T20:55:44.749Z,21.60
2023-12-19T20:58:13.101Z,21.60
2023-12-19T21:01:09.158Z,21.60
2023-12-19T21:03:38.305Z,21.60
2023-12-19T21:06:08.566Z,21.60
2023-12-19T21:08:36.982Z,21.60
2023-12-19T21:11:05.821Z,21.60
2023-12-19T21:13:34.786Z,21.70
2023-12-19T21:16:04.557Z,21.70
2023-12-19T21:18:34.815Z,21.70
2023-12-19T21:21:06.056Z,21.70
2023-12-19T21:23:35.750Z,21.70
2023-12-19T21:26:04.369Z,21.70
2023-12-19T21:28:33.159Z,21.70
2023-12-19T21:31:01.959Z,21.70
2023-12-19T21:33:31.231Z,21.60
2023-12-19T21:36:05.830Z,21.60
2023-12-19T21:38:34.370Z,21.60
2023-12-19T21:41:04.530Z,21.60
2023-12-19T21:43:33.822Z,21.60
2023-12-19T21:46:02.412Z,21.50
2023-12-19T21:48:30.916Z,21.50
2023-12-19T21:51:04.948Z,21.50
2023-12-19T21:53:37.394Z,21.50
2023-12-19T21:56:06.235Z,21.50
2023-12-19T21:58:34.995Z,21.50
2023-12-19T22:01:03.537Z,21.60
2023-12-19T22:03:32.151Z,21.60
2023-12-19T22:06:00.700Z,21.60
2023-12-19T22:08:29.078Z,21.60
2023-12-19T22:11:00.861Z,21.60
2023-12-19T22:13:30.290Z,21.60
2023-12-19T22:15:59.259Z,21.60
2023-12-19T22:18:28.137Z,21.60
2023-12-19T22:20:57.022Z,21.70
2023-12-19T22:23:26.278Z,21.70
2023-12-19T22:25:54.766Z,21.70
2023-12-19T22:28:24.539Z,21.70
2023-12-19T22:30:55.860Z,21.70
2023-12-19T22:33:24.652Z,21.70
2023-12-19T22:35:53.077Z,21.80
2023-12-19T22:38:21.455Z,21.80
2023-12-19T22:40:52.810Z,21.80
2023-12-19T22:43:21.812Z,21.80
2023-12-19T22:45:51.626Z,21.80
2023-12-19T22:48:20.365Z,21.80
2023-12-19T22:50:48.972Z,21.80
2023-12-19T22:53:17.331Z,21.80
2023-12-19T22:55:47.527Z,21.80
2023-12-19T22:58:16.873Z,21.80
2023-12-19T23:00:45.714Z,21.70
2023-12-19T23:03:18.101Z,21.70
2023-12-19T23:05:47.188Z,21.70
2023-12-19T23:08:15.442Z,21.70
2023-12-19T23:10:43.824Z,21.70
2023-12-19T23:13:13.368Z,21.70
2023-12-19T23:15:41.729Z,21.60
2023-12-19T23:18:10.441Z,21.70
2023-12-19T23:20:40.340Z,21.60
2023-12-19T23:23:08.724Z,21.60
2023-12-19T23:25:37.051Z,21.60
2023-12-19T23:28:05.859Z,21.60
2023-12-19T23:30:34.154Z,21.60
2023-12-19T23:33:02.537Z,21.50
2023-12-19T23:35:30.908Z,21.60
2023-12-19T23:37:59.539Z,21.60
2023-12-19T23:40:27.785Z,21.50
2023-12-19T23:42:56.101Z,21.50
2023-12-19T23:45:24.569Z,21.50
2023-12-19T23:47:52.960Z,21.50
2023-12-19T23:50:21.501Z,21.50
2023-12-19T23:52:49.819Z,21.50
2023-12-19T23:55:19.475Z,21.50
2023-12-19T23:57:48.067Z,21.50
